Time;durP1;ratioP1;P1;durP2;ratioP2;P2;SDS_P1;SDS_P2;PMS_P1;PMS_P2;Temp;Humidity;BMP_temperature;BMP_pressure;BME280_temperature;BME280_humidity;BME280_pressure;Samples;Min_cycle;Max_cycle;Signal;HPM_P1;HPM_P2
2022/03/09 00:01:08;;;;;;;18.33;8.38;;;;;;;;;;5764038;22;20038;-85
2022/03/09 00:11:20;;;;;;;16.55;7.78;;;;;;;;;;5925417;23;20071;-82
2022/03/09 00:31:50;;;;;;;18.95;7.57;;;;;;;;;;5703127;23;20050;-83
2022/03/09 00:34:16;;;;;;;16.63;8.38;;;;;;;;;;5016925;28;20026;-84
2022/03/09 00:36:44;;;;;;;16.95;7.97;;;;;;;;;;5037719;28;20025;-83
2022/03/09 00:39:09;;;;;;;15.55;7.45;;;;;;;;;;5021930;28;20013;-84
2022/03/09 00:46:45;;;;;;;14.50;6.97;;;;;;;;;;5203281;23;20050;-83
2022/03/09 00:49:18;;;;;;;15.65;7.55;;;;;;;;;;5018898;28;20070;-83
2022/03/09 00:51:43;;;;;;;15.65;7.10;;;;;;;;;;5017932;28;20010;-83
2022/03/09 00:54:09;;;;;;;13.55;7.40;;;;;;;;;;5038006;28;20073;-83
2022/03/09 00:56:34;;;;;;;17.77;7.07;;;;;;;;;;5048554;28;20025;-83
2022/03/09 00:59:00;;;;;;;17.75;7.55;;;;;;;;;;5058212;28;20012;-84
2022/03/09 01:01:30;;;;;;;13.95;6.88;;;;;;;;;;5040819;28;20018;-84
2022/03/09 01:03:57;;;;;;;18.85;7.43;;;;;;;;;;5058031;28;20014;-83
2022/03/09 01:06:25;;;;;;;14.00;6.93;;;;;;;;;;5056983;28;20028;-83
2022/03/09 01:08:52;;;;;;;16.48;7.15;;;;;;;;;;5057702;28;20016;-84
2022/03/09 01:11:18;;;;;;;11.60;5.95;;;;;;;;;;5058256;28;20016;-84
2022/03/09 01:13:44;;;;;;;13.93;6.03;;;;;;;;;;5299738;23;20033;-83
2022/03/09 01:16:09;;;;;;;13.95;6.25;;;;;;;;;;5250321;23;20134;-83
2022/03/09 01:18:37;;;;;;;14.35;7.05;;;;;;;;;;5021458;28;20006;-84
2022/03/09 01:21:03;;;;;;;15.23;6.25;;;;;;;;;;5008914;28;20026;-84
2022/03/09 01:23:28;;;;;;;14.98;6.70;;;;;;;;;;5042318;28;20028;-83
2022/03/09 01:25:54;;;;;;;11.20;6.22;;;;;;;;;;5042310;28;20082;-84
2022/03/09 01:28:21;;;;;;;15.63;7.45;;;;;;;;;;5025635;28;20034;-83
2022/03/09 01:30:47;;;;;;;14.90;6.53;;;;;;;;;;5354887;23;20046;-83
2022/03/09 01:33:14;;;;;;;15.50;7.53;;;;;;;;;;5033760;28;20017;-84
2022/03/09 01:35:45;;;;;;;19.95;8.15;;;;;;;;;;5057177;28;20020;-84
2022/03/09 01:38:11;;;;;;;17.42;7.13;;;;;;;;;;5062106;28;20009;-84
2022/03/09 01:40:36;;;;;;;15.10;6.72;;;;;;;;;;5791474;23;20026;-84
2022/03/09 01:43:02;;;;;;;15.50;6.93;;;;;;;;;;5036588;28;20017;-84
2022/03/09 01:45:28;;;;;;;11.30;6.40;;;;;;;;;;5061752;28;20028;-84
2022/03/09 01:47:54;;;;;;;15.85;7.30;;;;;;;;;;5869244;23;20066;-84
2022/03/09 01:50:22;;;;;;;17.53;8.00;;;;;;;;;;5020802;28;20010;-83
2022/03/09 01:52:48;;;;;;;13.93;6.78;;;;;;;;;;5030791;28;20025;-83
2022/03/09 01:55:14;;;;;;;15.68;6.63;;;;;;;;;;5057289;28;20073;-82
2022/03/09 01:57:41;;;;;;;13.48;7.15;;;;;;;;;;5058380;28;20025;-82
2022/03/09 02:00:07;;;;;;;13.60;7.40;;;;;;;;;;5039125;28;20048;-83
2022/03/09 02:02:33;;;;;;;17.23;6.85;;;;;;;;;;5058436;28;20065;-83
2022/03/09 02:04:59;;;;;;;17.40;7.40;;;;;;;;;;5060403;28;20040;-83
2022/03/09 02:10:10;;;;;;;13.60;7.28;;;;;;;;;;5050321;28;20045;-82
2022/03/09 02:12:37;;;;;;;12.65;6.25;;;;;;;;;;5023940;28;20045;-83
2022/03/09 02:15:03;;;;;;;14.03;7.10;;;;;;;;;;5039911;28;20018;-83
2022/03/09 02:17:29;;;;;;;13.25;6.28;;;;;;;;;;5058467;28;20044;-82
2022/03/09 02:19:55;;;;;;;12.43;6.00;;;;;;;;;;5058328;28;20085;-83
2022/03/09 02:22:29;;;;;;;13.68;6.22;;;;;;;;;;5038871;28;20472;-83
2022/03/09 02:24:55;;;;;;;12.18;5.65;;;;;;;;;;5041180;28;20005;-83
2022/03/09 02:27:21;;;;;;;14.63;6.23;;;;;;;;;;5043431;28;20058;-83
2022/03/09 02:29:54;;;;;;;13.13;6.57;;;;;;;;;;5059033;28;20017;-83
2022/03/09 02:32:19;;;;;;;14.00;5.97;;;;;;;;;;5057508;28;20032;-83
2022/03/09 02:34:47;;;;;;;13.57;6.13;;;;;;;;;;5059287;28;20033;-83
2022/03/09 02:37:13;;;;;;;16.10;6.72;;;;;;;;;;5056784;28;20029;-84
2022/03/09 02:39:45;;;;;;;14.50;5.70;;;;;;;;;;5055088;28;20374;-83
2022/03/09 02:42:12;;;;;;;13.20;5.53;;;;;;;;;;5060383;28;20051;-84
2022/03/09 02:44:37;;;;;;;11.73;6.10;;;;;;;;;;5043723;28;20053;-84
2022/03/09 02:47:03;;;;;;;13.93;5.63;;;;;;;;;;5043792;28;20017;-83
2022/03/09 02:49:29;;;;;;;13.03;5.80;;;;;;;;;;5060763;28;20052;-84
2022/03/09 02:54:32;;;;;;;11.33;5.90;;;;;;;;;;5558210;23;20040;-84
2022/03/09 02:56:58;;;;;;;13.02;5.63;;;;;;;;;;5040288;28;20030;-84
2022/03/09 02:59:23;;;;;;;15.83;6.27;;;;;;;;;;5040335;28;20018;-83
2022/03/09 03:01:48;;;;;;;13.03;6.53;;;;;;;;;;5061435;28;20021;-83
2022/03/09 03:04:14;;;;;;;14.37;5.77;;;;;;;;;;5079336;28;20017;-83
2022/03/09 03:06:39;;;;;;;11.63;5.63;;;;;;;;;;5076921;28;20024;-82
2022/03/09 03:09:04;;;;;;;12.57;5.80;;;;;;;;;;5061309;28;20068;-83
2022/03/09 03:11:32;;;;;;;12.67;6.10;;;;;;;;;;5062079;28;20021;-84
2022/03/09 03:14:01;;;;;;;12.37;5.40;;;;;;;;;;5079231;28;20021;-83
2022/03/09 03:16:26;;;;;;;13.95;6.50;;;;;;;;;;5078155;28;20012;-83
2022/03/09 03:18:51;;;;;;;14.77;6.90;;;;;;;;;;5067089;28;20029;-83
2022/03/09 03:21:17;;;;;;;13.07;6.17;;;;;;;;;;5055373;28;20085;-83
2022/03/09 03:23:42;;;;;;;14.90;6.57;;;;;;;;;;5039707;28;20122;-83
2022/03/09 03:26:08;;;;;;;14.73;6.17;;;;;;;;;;5056806;28;20065;-84
2022/03/09 03:28:33;;;;;;;13.03;6.00;;;;;;;;;;5057182;28;20033;-83
2022/03/09 03:30:59;;;;;;;12.53;6.03;;;;;;;;;;5058262;28;20022;-84
2022/03/09 03:33:25;;;;;;;13.10;5.70;;;;;;;;;;5056599;28;20009;-83
2022/03/09 03:35:50;;;;;;;14.63;5.93;;;;;;;;;;5066623;28;20085;-83
2022/03/09 03:38:15;;;;;;;12.67;5.93;;;;;;;;;;5052546;28;20108;-83
2022/03/09 03:40:41;;;;;;;13.20;5.60;;;;;;;;;;5070820;28;20023;-83
2022/03/09 03:43:06;;;;;;;13.87;5.73;;;;;;;;;;5034654;28;20029;-82
2022/03/09 03:45:35;;;;;;;15.73;5.87;;;;;;;;;;5052988;28;20067;-82
2022/03/09 03:48:01;;;;;;;10.40;5.68;;;;;;;;;;5060542;28;20060;-81
2022/03/09 03:50:27;;;;;;;11.87;5.17;;;;;;;;;;5071204;28;20114;-83
2022/03/09 03:52:52;;;;;;;11.87;5.00;;;;;;;;;;5058726;28;20018;-83
2022/03/09 03:55:18;;;;;;;11.23;5.43;;;;;;;;;;5051384;28;20032;-82
2022/03/09 03:57:43;;;;;;;15.07;5.77;;;;;;;;;;5051815;28;20014;-83
2022/03/09 04:00:09;;;;;;;13.67;5.40;;;;;;;;;;5051491;28;20017;-83
2022/03/09 04:02:34;;;;;;;11.77;4.83;;;;;;;;;;5051680;28;20040;-82
2022/03/09 04:05:00;;;;;;;11.60;4.73;;;;;;;;;;5054422;28;20028;-83
2022/03/09 04:07:26;;;;;;;10.30;4.70;;;;;;;;;;5074041;28;20040;-83
2022/03/09 04:09:54;;;;;;;9.53;4.43;;;;;;;;;;5076208;28;20091;-84
2022/03/09 04:12:23;;;;;;;11.40;5.07;;;;;;;;;;5054876;28;20029;-81
2022/03/09 04:14:49;;;;;;;10.60;4.87;;;;;;;;;;5068920;28;20025;-82
2022/03/09 04:17:14;;;;;;;12.33;4.90;;;;;;;;;;5051768;28;20392;-81
2022/03/09 04:19:42;;;;;;;10.23;4.67;;;;;;;;;;5067846;28;20049;-82
2022/03/09 04:22:08;;;;;;;14.23;5.37;;;;;;;;;;5067367;28;20017;-82
2022/03/09 04:24:33;;;;;;;8.13;4.50;;;;;;;;;;5054193;28;20032;-83
2022/03/09 04:26:59;;;;;;;11.83;4.70;;;;;;;;;;5073595;28;20084;-83
2022/03/09 04:29:24;;;;;;;12.33;5.00;;;;;;;;;;5074967;28;20096;-83
2022/03/09 04:31:49;;;;;;;11.30;5.17;;;;;;;;;;5059208;28;20096;-83
2022/03/09 04:34:15;;;;;;;10.03;4.90;;;;;;;;;;5056893;28;20040;-83
2022/03/09 04:36:40;;;;;;;11.97;5.43;;;;;;;;;;5071147;28;20047;-83
2022/03/09 04:39:06;;;;;;;12.30;5.20;;;;;;;;;;5072578;28;20112;-83
2022/03/09 04:41:34;;;;;;;12.73;4.80;;;;;;;;;;5077279;28;20027;-83
2022/03/09 04:43:59;;;;;;;9.73;4.43;;;;;;;;;;5060387;28;20080;-83
2022/03/09 04:46:25;;;;;;;9.90;4.53;;;;;;;;;;5075344;28;20001;-83
2022/03/09 04:48:50;;;;;;;12.87;4.97;;;;;;;;;;5058407;28;20028;-83
2022/03/09 04:51:16;;;;;;;12.83;5.07;;;;;;;;;;5074324;28;20048;-83
2022/03/09 04:53:42;;;;;;;10.87;4.77;;;;;;;;;;5073832;28;20077;-84
2022/03/09 04:56:11;;;;;;;10.00;4.97;;;;;;;;;;5075264;28;20056;-83
2022/03/09 04:58:37;;;;;;;13.70;5.33;;;;;;;;;;5059525;28;20029;-83
2022/03/09 05:01:05;;;;;;;10.30;4.83;;;;;;;;;;5077061;28;20025;-83
2022/03/09 05:03:32;;;;;;;10.90;4.70;;;;;;;;;;5057704;28;20076;-83
2022/03/09 05:05:57;;;;;;;10.53;5.60;;;;;;;;;;5068664;28;20017;-83
2022/03/09 05:08:23;;;;;;;12.30;5.33;;;;;;;;;;5070308;28;20028;-82
2022/03/09 05:10:51;;;;;;;15.37;5.53;;;;;;;;;;5050467;28;20044;-81
2022/03/09 05:13:19;;;;;;;13.00;6.25;;;;;;;;;;5069236;28;20044;-81
2022/03/09 05:15:45;;;;;;;11.85;5.57;;;;;;;;;;5069642;28;20048;-82
2022/03/09 05:18:10;;;;;;;15.47;5.53;;;;;;;;;;5069204;28;20009;-83
2022/03/09 05:20:36;;;;;;;11.37;5.30;;;;;;;;;;5068720;28;20500;-81
2022/03/09 05:23:01;;;;;;;11.00;5.20;;;;;;;;;;5054235;28;20014;-83
2022/03/09 05:25:30;;;;;;;20.10;6.23;;;;;;;;;;5050033;28;20041;-82
2022/03/09 05:27:58;;;;;;;13.87;5.80;;;;;;;;;;5050120;28;20037;-82
2022/03/09 05:30:27;;;;;;;12.88;6.53;;;;;;;;;;5050152;28;20014;-82
2022/03/09 05:32:52;;;;;;;13.50;5.65;;;;;;;;;;5062395;28;20036;-82
2022/03/09 05:35:17;;;;;;;14.87;5.97;;;;;;;;;;5064351;28;20484;-82
2022/03/09 05:37:45;;;;;;;19.40;6.47;;;;;;;;;;5048300;28;20025;-81
2022/03/09 05:40:11;;;;;;;13.85;5.72;;;;;;;;;;5069393;28;20025;-83
2022/03/09 05:42:37;;;;;;;11.77;4.97;;;;;;;;;;5050003;28;20029;-83
2022/03/09 05:45:06;;;;;;;16.53;6.50;;;;;;;;;;5068543;28;20025;-83
2022/03/09 05:47:31;;;;;;;13.07;5.43;;;;;;;;;;5038309;28;20031;-83
2022/03/09 05:49:57;;;;;;;11.97;5.33;;;;;;;;;;5072984;28;20072;-84
2022/03/09 05:52:23;;;;;;;14.50;6.10;;;;;;;;;;5072685;28;20017;-84
2022/03/09 05:54:48;;;;;;;13.60;6.03;;;;;;;;;;5075603;28;20024;-85
2022/03/09 05:57:17;;;;;;;12.83;5.77;;;;;;;;;;5058214;28;20100;-84
2022/03/09 05:59:43;;;;;;;15.23;6.10;;;;;;;;;;5056529;28;20013;-84
2022/03/09 06:02:08;;;;;;;13.67;6.17;;;;;;;;;;5056363;28;20009;-84
2022/03/09 06:04:34;;;;;;;11.60;5.70;;;;;;;;;;5058607;28;20084;-84
2022/03/09 06:07:01;;;;;;;13.30;5.87;;;;;;;;;;5078585;28;20021;-84
2022/03/09 06:09:26;;;;;;;12.33;5.77;;;;;;;;;;5040656;28;20089;-85
2022/03/09 06:11:52;;;;;;;18.17;6.80;;;;;;;;;;5038674;28;20021;-84
2022/03/09 06:14:17;;;;;;;11.33;6.23;;;;;;;;;;5058612;28;20077;-82
2022/03/09 06:16:43;;;;;;;21.37;6.73;;;;;;;;;;5040328;28;20017;-84
2022/03/09 06:19:16;;;;;;;16.40;6.23;;;;;;;;;;5056479;28;20064;-83
2022/03/09 06:21:41;;;;;;;13.13;6.50;;;;;;;;;;5039942;28;20032;-84
2022/03/09 06:24:07;;;;;;;15.47;6.27;;;;;;;;;;5059305;28;20029;-82
2022/03/09 06:26:33;;;;;;;14.17;6.47;;;;;;;;;;5054397;28;20024;-84
2022/03/09 06:29:01;;;;;;;13.67;5.93;;;;;;;;;;5061904;28;20021;-84
2022/03/09 06:31:30;;;;;;;13.38;6.20;;;;;;;;;;5059840;28;20040;-84
2022/03/09 06:33:56;;;;;;;13.77;6.10;;;;;;;;;;5058563;28;20024;-83
2022/03/09 06:36:21;;;;;;;14.93;6.70;;;;;;;;;;5059625;28;20001;-83
2022/03/09 06:38:47;;;;;;;17.33;6.77;;;;;;;;;;5061756;28;20029;-84
2022/03/09 06:41:15;;;;;;;13.70;6.17;;;;;;;;;;5062124;28;20004;-84
2022/03/09 06:46:18;;;;;;;13.23;6.60;;;;;;;;;;5192601;22;20034;-83
2022/03/09 06:48:44;;;;;;;11.07;5.63;;;;;;;;;;5020204;28;20045;-84
2022/03/09 06:51:09;;;;;;;11.17;6.10;;;;;;;;;;5039612;28;20041;-84
2022/03/09 06:53:35;;;;;;;17.20;7.17;;;;;;;;;;5037685;28;20030;-82
2022/03/09 06:56:00;;;;;;;15.83;7.07;;;;;;;;;;5017967;28;20033;-85
2022/03/09 06:58:26;;;;;;;14.13;6.00;;;;;;;;;;5039334;28;20053;-83
2022/03/09 07:00:51;;;;;;;15.13;6.97;;;;;;;;;;5039734;28;20026;-84
2022/03/09 07:03:17;;;;;;;11.67;6.23;;;;;;;;;;5421996;23;20050;-84
2022/03/09 07:05:44;;;;;;;17.83;6.60;;;;;;;;;;5335502;22;20040;-83
2022/03/09 07:08:10;;;;;;;14.60;6.53;;;;;;;;;;5062324;28;20012;-84
2022/03/09 07:10:35;;;;;;;13.60;6.37;;;;;;;;;;5061720;28;20055;-82
2022/03/09 07:18:05;;;;;;;13.10;6.87;;;;;;;;;;5056861;28;20107;-84
2022/03/09 07:20:31;;;;;;;18.87;7.27;;;;;;;;;;5041754;28;20017;-84
2022/03/09 07:22:56;;;;;;;17.90;6.90;;;;;;;;;;5085803;28;20012;-84
2022/03/09 07:25:21;;;;;;;23.70;7.30;;;;;;;;;;5082233;28;20029;-83
2022/03/09 07:27:47;;;;;;;16.30;6.77;;;;;;;;;;5069049;28;20119;-84
2022/03/09 07:30:13;;;;;;;13.13;6.10;;;;;;;;;;5060632;28;20025;-83
2022/03/09 07:32:39;;;;;;;13.17;6.57;;;;;;;;;;5060656;28;20043;-85
2022/03/09 07:35:07;;;;;;;19.27;7.57;;;;;;;;;;5061645;28;20005;-83
2022/03/09 07:37:33;;;;;;;15.80;7.82;;;;;;;;;;5078549;28;20008;-83
2022/03/09 07:40:01;;;;;;;15.97;6.30;;;;;;;;;;5085174;28;20025;-85
2022/03/09 07:42:26;;;;;;;22.20;7.57;;;;;;;;;;5063414;28;20014;-84
2022/03/09 07:45:00;;;;;;;24.17;8.40;;;;;;;;;;5058732;28;20104;-83
2022/03/09 07:47:25;;;;;;;18.37;7.17;;;;;;;;;;5298833;23;20045;-83
2022/03/09 07:49:51;;;;;;;23.00;7.13;;;;;;;;;;5018684;28;20027;-83
2022/03/09 07:52:16;;;;;;;19.35;6.72;;;;;;;;;;5016824;28;20037;-84
2022/03/09 07:54:42;;;;;;;12.40;6.55;;;;;;;;;;5018644;28;20132;-83
2022/03/09 07:57:07;;;;;;;12.70;6.35;;;;;;;;;;5021365;28;20018;-84
2022/03/09 07:59:32;;;;;;;12.05;6.07;;;;;;;;;;5027764;28;20022;-84
2022/03/09 08:02:00;;;;;;;16.15;6.05;;;;;;;;;;5011332;28;20650;-83
2022/03/09 08:04:29;;;;;;;13.97;6.10;;;;;;;;;;5017767;28;20025;-84
2022/03/09 08:06:54;;;;;;;13.02;6.32;;;;;;;;;;5017239;28;20248;-83
2022/03/09 08:09:20;;;;;;;11.13;5.97;;;;;;;;;;5015286;28;20103;-85
2022/03/09 08:11:51;;;;;;;12.85;7.10;;;;;;;;;;4995161;28;20026;-85
2022/03/09 08:14:16;;;;;;;15.63;6.05;;;;;;;;;;5018453;28;20011;-84
2022/03/09 08:16:42;;;;;;;19.35;6.53;;;;;;;;;;5024612;28;20040;-81
2022/03/09 08:19:07;;;;;;;14.23;6.40;;;;;;;;;;5034139;28;20022;-82
2022/03/09 08:21:33;;;;;;;15.70;6.03;;;;;;;;;;5019815;28;20006;-83
2022/03/09 08:23:58;;;;;;;17.67;6.75;;;;;;;;;;5035970;28;20054;-83
2022/03/09 08:26:24;;;;;;;12.23;6.88;;;;;;;;;;5035367;28;20018;-83
2022/03/09 08:28:52;;;;;;;17.50;7.05;;;;;;;;;;5032802;28;20076;-81
2022/03/09 08:31:21;;;;;;;15.57;6.45;;;;;;;;;;5013387;28;20085;-84
2022/03/09 08:33:46;;;;;;;17.60;7.40;;;;;;;;;;5010257;28;20036;-83
2022/03/09 08:36:15;;;;;;;15.13;7.13;;;;;;;;;;5018156;28;20037;-84
2022/03/09 08:38:40;;;;;;;15.82;8.10;;;;;;;;;;5037949;28;20021;-84
2022/03/09 08:41:06;;;;;;;17.98;8.32;;;;;;;;;;5037283;28;20018;-83
2022/03/09 08:43:31;;;;;;;17.73;8.35;;;;;;;;;;5037219;28;20045;-83
2022/03/09 08:45:57;;;;;;;24.35;8.20;;;;;;;;;;5021443;28;20029;-85
2022/03/09 08:48:26;;;;;;;17.75;7.80;;;;;;;;;;5037582;28;20049;-83
2022/03/09 08:50:51;;;;;;;20.00;9.40;;;;;;;;;;5016808;28;20018;-82
2022/03/09 08:53:17;;;;;;;17.58;9.13;;;;;;;;;;5036585;28;19998;-83
2022/03/09 08:55:42;;;;;;;17.10;9.02;;;;;;;;;;5037427;28;20020;-84
2022/03/09 08:58:08;;;;;;;16.98;8.95;;;;;;;;;;5036934;28;20002;-84
2022/03/09 09:00:33;;;;;;;16.40;8.63;;;;;;;;;;5035727;28;20002;-82
2022/03/09 09:02:58;;;;;;;20.50;9.52;;;;;;;;;;5020024;28;20102;-84
2022/03/09 09:05:26;;;;;;;19.17;9.90;;;;;;;;;;5020637;28;20005;-84
2022/03/09 09:07:54;;;;;;;24.15;8.82;;;;;;;;;;5158926;23;20029;-84
2022/03/09 09:10:20;;;;;;;17.85;9.35;;;;;;;;;;5035049;28;20033;-84
2022/03/09 09:12:50;;;;;;;18.60;8.23;;;;;;;;;;5029723;28;20052;-83
2022/03/09 09:15:16;;;;;;;19.63;8.65;;;;;;;;;;5040739;28;20002;-85
2022/03/09 09:17:42;;;;;;;18.95;7.63;;;;;;;;;;5057683;28;20013;-81
2022/03/09 09:20:07;;;;;;;18.40;7.85;;;;;;;;;;5056563;28;20033;-83
2022/03/09 09:22:33;;;;;;;16.98;6.72;;;;;;;;;;5057315;28;20024;-84
2022/03/09 09:25:01;;;;;;;15.07;6.45;;;;;;;;;;5039331;28;20008;-84
2022/03/09 09:27:27;;;;;;;16.27;6.05;;;;;;;;;;5056323;28;20017;-84
2022/03/09 09:29:53;;;;;;;15.38;5.95;;;;;;;;;;5045639;28;20056;-83
2022/03/09 09:32:18;;;;;;;17.45;6.57;;;;;;;;;;5039285;28;20041;-83
2022/03/09 09:34:43;;;;;;;13.18;6.22;;;;;;;;;;5056716;28;20002;-83
2022/03/09 09:37:09;;;;;;;14.50;6.85;;;;;;;;;;5057349;28;20010;-83
2022/03/09 09:39:38;;;;;;;13.50;6.47;;;;;;;;;;5075882;28;20001;-84
2022/03/09 09:42:03;;;;;;;;;;;;;;;;;;5081250;28;20005;-83
2022/03/09 09:44:30;;;;;;;11.93;5.28;;;;;;;;;;5061533;28;19900;-84
2022/03/09 09:46:56;;;;;;;10.32;5.43;;;;;;;;;;5044070;28;20012;-83
2022/03/09 09:49:24;;;;;;;13.55;5.22;;;;;;;;;;5062672;28;20005;-83
2022/03/09 09:51:50;;;;;;;14.30;5.35;;;;;;;;;;5080881;28;20097;-82
2022/03/09 09:54:15;;;;;;;12.55;5.65;;;;;;;;;;5078118;28;20009;-84
2022/03/09 09:56:41;;;;;;;9.60;5.35;;;;;;;;;;5049064;28;20061;-84
2022/03/09 09:59:07;;;;;;;18.80;5.78;;;;;;;;;;5057944;28;20005;-85
2022/03/09 10:01:32;;;;;;;14.88;5.55;;;;;;;;;;5051985;28;20028;-86
2022/03/09 10:03:57;;;;;;;9.68;5.07;;;;;;;;;;5034578;28;20125;-86
2022/03/09 10:06:23;;;;;;;14.65;4.65;;;;;;;;;;5050583;28;20442;-86
2022/03/09 10:09:02;;;;;;;13.23;5.05;;;;;;;;;;5039793;28;20136;-90
2022/03/09 10:11:43;;;;;;;9.57;4.60;;;;;;;;;;5038105;28;20025;-88
2022/03/09 10:14:08;;;;;;;10.15;4.60;;;;;;;;;;5044672;28;20013;-88
2022/03/09 10:16:33;;;;;;;7.77;4.03;;;;;;;;;;5046897;28;20017;-88
2022/03/09 10:19:00;;;;;;;8.38;3.97;;;;;;;;;;5042445;28;20357;-87
2022/03/09 10:21:26;;;;;;;14.00;4.65;;;;;;;;;;5027229;28;20044;-85
2022/03/09 10:23:53;;;;;;;12.90;4.60;;;;;;;;;;5049661;28;20040;-86
2022/03/09 10:26:18;;;;;;;9.45;4.45;;;;;;;;;;5034033;28;20024;-84
2022/03/09 10:28:54;;;;;;;9.00;4.53;;;;;;;;;;5051422;28;20392;-86
2022/03/09 10:31:31;;;;;;;7.80;4.45;;;;;;;;;;5039133;28;20025;-86
2022/03/09 10:34:07;;;;;;;6.57;4.15;;;;;;;;;;5046119;28;20026;-87
2022/03/09 10:36:32;;;;;;;9.30;5.10;;;;;;;;;;5027906;28;20033;-87
2022/03/09 10:39:10;;;;;;;11.77;4.70;;;;;;;;;;5025077;28;20031;-87
2022/03/09 10:41:36;;;;;;;8.98;4.22;;;;;;;;;;5038816;28;20084;-86
2022/03/09 10:44:01;;;;;;;9.70;4.30;;;;;;;;;;5044959;28;20127;-86
2022/03/09 10:46:26;;;;;;;17.77;5.20;;;;;;;;;;5046539;28;20587;-86
2022/03/09 10:48:53;;;;;;;7.37;4.37;;;;;;;;;;5035990;28;20618;-85
2022/03/09 10:51:25;;;;;;;7.45;3.90;;;;;;;;;;5036255;28;20270;-87
2022/03/09 10:53:51;;;;;;;7.72;3.70;;;;;;;;;;5047278;28;20028;-85
2022/03/09 10:56:21;;;;;;;8.80;3.60;;;;;;;;;;5045490;28;20018;-85
2022/03/09 10:58:47;;;;;;;21.20;4.95;;;;;;;;;;5030112;28;20275;-85
2022/03/09 11:01:16;;;;;;;7.05;3.65;;;;;;;;;;5036853;28;20473;-86
2022/03/09 11:03:43;;;;;;;8.32;4.07;;;;;;;;;;5047258;28;20485;-86
2022/03/09 11:06:09;;;;;;;10.77;4.00;;;;;;;;;;5043704;28;20024;-86
2022/03/09 11:08:35;;;;;;;7.93;3.35;;;;;;;;;;5023711;28;20035;-86
2022/03/09 11:11:02;;;;;;;8.38;3.92;;;;;;;;;;5033356;28;20052;-84
2022/03/09 11:13:28;;;;;;;7.97;3.80;;;;;;;;;;5028900;28;20048;-86
2022/03/09 11:15:54;;;;;;;5.90;3.70;;;;;;;;;;5033052;28;20044;-85
2022/03/09 11:18:24;;;;;;;7.88;3.65;;;;;;;;;;5044060;28;20476;-86
2022/03/09 11:20:50;;;;;;;5.97;3.60;;;;;;;;;;5037620;28;20094;-87
2022/03/09 11:23:16;;;;;;;8.20;3.90;;;;;;;;;;5033205;28;20028;-88
2022/03/09 11:25:47;;;;;;;7.65;4.05;;;;;;;;;;5029305;28;20021;-87
2022/03/09 11:28:12;;;;;;;6.50;3.53;;;;;;;;;;5040565;28;20021;-86
2022/03/09 11:30:38;;;;;;;6.10;3.37;;;;;;;;;;5021117;28;20045;-85
2022/03/09 11:33:03;;;;;;;6.55;3.80;;;;;;;;;;5035277;28;20274;-87
2022/03/09 11:35:31;;;;;;;11.20;4.23;;;;;;;;;;5019549;28;20488;-86
2022/03/09 11:37:56;;;;;;;6.50;3.85;;;;;;;;;;5045340;28;20025;-87
2022/03/09 11:40:22;;;;;;;8.43;4.00;;;;;;;;;;5026905;28;20099;-86
2022/03/09 11:42:47;;;;;;;6.68;3.75;;;;;;;;;;5053143;28;20040;-87
2022/03/09 11:45:37;;;;;;;6.43;3.30;;;;;;;;;;5030843;28;20120;-86
2022/03/09 11:48:07;;;;;;;6.43;3.70;;;;;;;;;;5047050;28;20508;-88
2022/03/09 11:50:52;;;;;;;7.55;3.92;;;;;;;;;;5053806;28;20086;-87
2022/03/09 11:53:36;;;;;;;7.75;4.63;;;;;;;;;;5036158;28;20047;-84
2022/03/09 11:56:20;;;;;;;7.35;3.88;;;;;;;;;;5045798;28;20048;-86
2022/03/09 11:59:04;;;;;;;5.15;3.38;;;;;;;;;;5048192;28;20017;-88
2022/03/09 12:01:29;;;;;;;8.02;3.97;;;;;;;;;;5040959;28;20477;-87
2022/03/09 12:03:54;;;;;;;6.97;3.90;;;;;;;;;;5045076;28;20024;-87
2022/03/09 12:06:38;;;;;;;7.78;3.85;;;;;;;;;;5044466;28;20021;-87
2022/03/09 12:09:03;;;;;;;7.85;3.80;;;;;;;;;;5037013;28;20448;-88
2022/03/09 12:11:29;;;;;;;6.53;3.55;;;;;;;;;;5031601;28;20014;-88
2022/03/09 12:13:54;;;;;;;7.00;3.57;;;;;;;;;;5041169;28;20040;-87
2022/03/09 12:16:22;;;;;;;6.53;3.43;;;;;;;;;;5054441;28;20390;-89
2022/03/09 12:18:48;;;;;;;10.77;4.47;;;;;;;;;;5030289;28;20013;-86
2022/03/09 12:21:15;;;;;;;9.80;3.50;;;;;;;;;;5051857;28;20071;-87
2022/03/09 12:24:13;;;;;;;8.57;3.63;;;;;;;;;;5047327;28;20083;-89
2022/03/09 12:26:47;;;;;;;6.25;3.70;;;;;;;;;;5043281;28;20314;-88
2022/03/09 12:29:22;;;;;;;5.68;3.50;;;;;;;;;;5051559;28;20513;-88
2022/03/09 12:32:07;;;;;;;7.53;3.40;;;;;;;;;;5022305;28;20097;-86
2022/03/09 12:37:14;;;;;;;8.65;5.03;;;;;;;;;;5008930;28;20077;-87
2022/03/09 12:39:46;;;;;;;8.98;4.15;;;;;;;;;;5013675;28;20485;-86
2022/03/09 12:42:11;;;;;;;11.05;4.38;;;;;;;;;;5013855;28;20152;-88
2022/03/09 12:44:37;;;;;;;12.83;7.90;;;;;;;;;;4996438;28;20064;-88
2022/03/09 12:47:03;;;;;;;20.58;12.93;;;;;;;;;;5011697;28;20021;-86
2022/03/09 12:49:28;;;;;;;24.42;10.20;;;;;;;;;;5029756;28;20508;-86
2022/03/09 12:51:55;;;;;;;8.60;5.47;;;;;;;;;;5021553;28;20053;-87
2022/03/09 12:54:31;;;;;;;16.67;9.35;;;;;;;;;;5017213;28;20049;-86
2022/03/09 12:56:56;;;;;;;11.90;6.35;;;;;;;;;;5000336;28;20017;-87
2022/03/09 12:59:21;;;;;;;10.20;4.38;;;;;;;;;;4999555;28;20024;-87
2022/03/09 13:01:53;;;;;;;8.00;5.17;;;;;;;;;;5009426;28;20056;-88
2022/03/09 13:04:22;;;;;;;10.00;4.95;;;;;;;;;;5007432;28;20029;-87
2022/03/09 13:06:50;;;;;;;6.95;4.55;;;;;;;;;;5002104;28;20560;-88
2022/03/09 13:09:15;;;;;;;;;;;;;;;;;;5030495;28;20426;-88
2022/03/09 13:11:40;;;;;;;13.18;4.03;;;;;;;;;;4995063;28;19917;-86
2022/03/09 13:14:13;;;;;;;6.38;4.35;;;;;;;;;;5018483;28;20514;-87
2022/03/09 13:16:38;;;;;;;11.18;4.88;;;;;;;;;;5013600;28;20017;-87
2022/03/09 13:19:03;;;;;;;7.87;4.30;;;;;;;;;;5011267;28;20485;-87
2022/03/09 13:21:30;;;;;;;9.52;4.55;;;;;;;;;;5041930;28;20251;-88
2022/03/09 13:23:58;;;;;;;18.35;6.35;;;;;;;;;;5030751;28;20014;-88
2022/03/09 13:26:23;;;;;;;;;;;;;;;;;;5013181;28;20029;-88
2022/03/09 13:28:56;;;;;;;8.05;3.95;;;;;;;;;;5010748;28;19967;-87
2022/03/09 13:31:21;;;;;;;8.30;4.07;;;;;;;;;;5021612;28;20031;-88
2022/03/09 13:33:47;;;;;;;10.00;4.32;;;;;;;;;;5038504;28;20021;-88
2022/03/09 13:36:16;;;;;;;8.23;4.55;;;;;;;;;;5031628;28;20013;-87
2022/03/09 13:38:53;;;;;;;7.93;4.13;;;;;;;;;;5024438;28;20018;-88
2022/03/09 13:41:18;;;;;;;5.85;3.67;;;;;;;;;;5032428;28;20107;-87
2022/03/09 13:43:43;;;;;;;5.85;3.65;;;;;;;;;;5021221;28;20025;-86
2022/03/09 13:46:16;;;;;;;9.83;4.50;;;;;;;;;;4998181;28;20496;-85
2022/03/09 13:48:41;;;;;;;7.88;4.38;;;;;;;;;;5018079;28;20018;-86
2022/03/09 13:51:07;;;;;;;9.50;4.38;;;;;;;;;;4999020;28;20393;-85
2022/03/09 13:53:34;;;;;;;10.77;4.50;;;;;;;;;;5030776;28;20049;-85
2022/03/09 13:56:00;;;;;;;9.73;4.57;;;;;;;;;;5023586;28;20028;-88
2022/03/09 13:58:29;;;;;;;9.52;4.45;;;;;;;;;;5023688;28;20271;-87
2022/03/09 14:01:03;;;;;;;9.05;4.05;;;;;;;;;;5030909;28;20089;-87
2022/03/09 14:03:28;;;;;;;5.82;3.78;;;;;;;;;;4992498;28;20148;-86
2022/03/09 14:05:55;;;;;;;6.85;4.68;;;;;;;;;;5027800;28;20181;-86
2022/03/09 14:08:24;;;;;;;11.57;5.00;;;;;;;;;;5009217;28;20467;-87
2022/03/09 14:10:51;;;;;;;7.78;4.40;;;;;;;;;;5002617;28;20699;-86
2022/03/09 14:13:17;;;;;;;9.07;4.97;;;;;;;;;;5014482;28;20492;-86
2022/03/09 14:15:43;;;;;;;9.18;4.63;;;;;;;;;;5026271;28;20025;-86
2022/03/09 14:18:08;;;;;;;6.30;3.58;;;;;;;;;;5033800;28;20022;-85
2022/03/09 14:20:34;;;;;;;9.77;4.47;;;;;;;;;;5004194;28;20022;-86
2022/03/09 14:22:59;;;;;;;10.23;4.50;;;;;;;;;;4997624;28;20021;-87
2022/03/09 14:25:24;;;;;;;7.65;4.00;;;;;;;;;;5017619;28;20596;-86
2022/03/09 14:27:51;;;;;;;9.57;4.38;;;;;;;;;;5027947;28;20026;-86
2022/03/09 14:30:17;;;;;;;6.70;4.15;;;;;;;;;;5014812;28;20028;-86
2022/03/09 14:32:43;;;;;;;13.32;4.85;;;;;;;;;;5028396;28;20108;-86
2022/03/09 14:35:11;;;;;;;8.00;4.38;;;;;;;;;;5017900;28;20062;-88
2022/03/09 14:37:36;;;;;;;7.35;4.38;;;;;;;;;;4998045;28;20068;-86
2022/03/09 14:40:01;;;;;;;11.23;4.53;;;;;;;;;;5025314;28;20022;-87
2022/03/09 14:42:27;;;;;;;10.00;4.13;;;;;;;;;;5026228;28;20313;-85
2022/03/09 14:44:52;;;;;;;9.48;4.20;;;;;;;;;;5018715;28;20045;-86
2022/03/09 14:47:17;;;;;;;5.20;3.67;;;;;;;;;;5030112;28;20444;-87
2022/03/09 14:49:43;;;;;;;7.45;4.35;;;;;;;;;;5020390;28;20104;-87
2022/03/09 14:52:09;;;;;;;6.80;3.67;;;;;;;;;;5006983;28;20393;-87
2022/03/09 14:54:35;;;;;;;9.38;4.28;;;;;;;;;;5021976;28;20659;-87
2022/03/09 14:57:00;;;;;;;9.40;3.80;;;;;;;;;;5013185;28;20392;-84
2022/03/09 14:59:27;;;;;;;6.45;4.20;;;;;;;;;;5010121;28;20058;-86
2022/03/09 15:01:53;;;;;;;5.80;3.67;;;;;;;;;;5021506;28;20044;-87
2022/03/09 15:04:18;;;;;;;8.52;4.25;;;;;;;;;;5023175;28;20496;-85
2022/03/09 15:06:46;;;;;;;12.35;5.05;;;;;;;;;;5028167;28;20083;-86
2022/03/09 15:09:12;;;;;;;;;;;;;;;;;;5017902;28;20048;-84
2022/03/09 15:11:37;;;;;;;7.95;4.07;;;;;;;;;;5022489;28;19957;-85
2022/03/09 15:14:02;;;;;;;13.05;4.30;;;;;;;;;;4991426;28;20032;-87
2022/03/09 15:16:28;;;;;;;10.20;3.83;;;;;;;;;;4996342;28;20014;-87
2022/03/09 15:18:53;;;;;;;10.70;3.97;;;;;;;;;;5012038;28;20255;-86
2022/03/09 15:21:18;;;;;;;8.77;4.30;;;;;;;;;;5024269;28;20259;-89